sensor_id;sensor_type;location;lat;lon;timestamp;temperature;humidity
31837;DHT22;18401;49.344;6.240;2023-06-22T00:00:48;20.10;99.90
31837;DHT22;18401;49.344;6.240;2023-06-22T00:03:14;20.00;99.90
31837;DHT22;18401;49.344;6.240;2023-06-22T00:05:41;20.00;99.90
31837;DHT22;18401;49.344;6.240;2023-06-22T00:08:07;20.00;99.90
31837;DHT22;18401;49.344;6.240;2023-06-22T00:10:33;20.00;99.90
31837;DHT22;18401;49.344;6.240;2023-06-22T00:12:58;19.90;99.90
31837;DHT22;18401;49.344;6.240;2023-06-22T00:15:24;19.90;99.90
31837;DHT22;18401;49.344;6.240;2023-06-22T00:17:50;19.80;99.90
31837;DHT22;18401;49.344;6.240;2023-06-22T00:20:16;19.80;99.90
31837;DHT22;18401;49.344;6.240;2023-06-22T00:22:43;19.80;99.90
31837;DHT22;18401;49.344;6.240;2023-06-22T00:25:09;19.80;99.90
31837;DHT22;18401;49.344;6.240;2023-06-22T00:27:36;19.80;99.90
31837;DHT22;18401;49.344;6.240;2023-06-22T00:30:03;19.90;99.90
31837;DHT22;18401;49.344;6.240;2023-06-22T00:32:28;19.90;99.90
31837;DHT22;18401;49.344;6.240;2023-06-22T00:34:54;19.90;99.90
31837;DHT22;18401;49.344;6.240;2023-06-22T00:37:20;19.90;99.90
31837;DHT22;18401;49.344;6.240;2023-06-22T00:39:48;19.90;99.90
31837;DHT22;18401;49.344;6.240;2023-06-22T00:42:14;19.90;99.90
31837;DHT22;18401;49.344;6.240;2023-06-22T00:44:39;20.00;99.90
31837;DHT22;18401;49.344;6.240;2023-06-22T00:47:06;20.10;99.90
31837;DHT22;18401;49.344;6.240;2023-06-22T00:49:32;20.10;99.90
31837;DHT22;18401;49.344;6.240;2023-06-22T00:51:58;20.20;99.90
31837;DHT22;18401;49.344;6.240;2023-06-22T00:54:24;20.20;99.90
31837;DHT22;18401;49.344;6.240;2023-06-22T00:56:54;20.30;99.90
31837;DHT22;18401;49.344;6.240;2023-06-22T00:59:22;20.20;99.90
31837;DHT22;18401;49.344;6.240;2023-06-22T01:01:48;20.10;99.90
31837;DHT22;18401;49.344;6.240;2023-06-22T01:04:14;20.00;99.90
31837;DHT22;18401;49.344;6.240;2023-06-22T01:07:35;20.00;99.90
31837;DHT22;18401;49.344;6.240;2023-06-22T01:12:18;19.80;99.90
31837;DHT22;18401;49.344;6.240;2023-06-22T01:14:53;19.80;99.90
31837;DHT22;18401;49.344;6.240;2023-06-22T01:17:20;19.80;99.90
31837;DHT22;18401;49.344;6.240;2023-06-22T01:19:49;19.80;99.90
31837;DHT22;18401;49.344;6.240;2023-06-22T01:22:20;19.80;99.90
31837;DHT22;18401;49.344;6.240;2023-06-22T01:30:14;19.80;99.90
31837;DHT22;18401;49.344;6.240;2023-06-22T01:32:41;19.70;99.90
31837;DHT22;18401;49.344;6.240;2023-06-22T01:35:08;19.70;99.90
31837;DHT22;18401;49.344;6.240;2023-06-22T01:37:36;19.70;99.90
31837;DHT22;18401;49.344;6.240;2023-06-22T01:40:03;19.60;99.90
31837;DHT22;18401;49.344;6.240;2023-06-22T01:42:32;19.70;99.90
31837;DHT22;18401;49.344;6.240;2023-06-22T01:44:59;19.70;99.90
31837;DHT22;18401;49.344;6.240;2023-06-22T01:47:25;19.70;99.90
31837;DHT22;18401;49.344;6.240;2023-06-22T01:49:53;19.70;99.90
31837;DHT22;18401;49.344;6.240;2023-06-22T01:52:19;19.70;99.90
31837;DHT22;18401;49.344;6.240;2023-06-22T01:54:46;19.70;99.90
31837;DHT22;18401;49.344;6.240;2023-06-22T01:57:13;19.70;99.90
31837;DHT22;18401;49.344;6.240;2023-06-22T01:59:45;19.70;99.90
31837;DHT22;18401;49.344;6.240;2023-06-22T02:02:16;19.70;99.90
31837;DHT22;18401;49.344;6.240;2023-06-22T02:05:00;19.70;99.90
31837;DHT22;18401;49.344;6.240;2023-06-22T02:07:34;19.60;99.90
31837;DHT22;18401;49.344;6.240;2023-06-22T02:10:03;19.60;99.90
31837;DHT22;18401;49.344;6.240;2023-06-22T02:12:30;19.60;99.90
31837;DHT22;18401;49.344;6.240;2023-06-22T02:14:57;19.60;99.90
31837;DHT22;18401;49.344;6.240;2023-06-22T02:17:23;19.60;99.90
31837;DHT22;18401;49.344;6.240;2023-06-22T02:19:49;19.60;99.90
31837;DHT22;18401;49.344;6.240;2023-06-22T02:22:15;19.60;99.90
31837;DHT22;18401;49.344;6.240;2023-06-22T02:24:41;19.60;99.90
31837;DHT22;18401;49.344;6.240;2023-06-22T02:27:06;19.60;99.90
31837;DHT22;18401;49.344;6.240;2023-06-22T02:29:32;19.50;99.90
31837;DHT22;18401;49.344;6.240;2023-06-22T02:31:58;19.50;99.90
31837;DHT22;18401;49.344;6.240;2023-06-22T02:34:24;19.60;99.90
31837;DHT22;18401;49.344;6.240;2023-06-22T02:36:50;19.60;99.90
31837;DHT22;18401;49.344;6.240;2023-06-22T02:39:25;19.60;99.90
31837;DHT22;18401;49.344;6.240;2023-06-22T02:41:52;19.50;99.90
31837;DHT22;18401;49.344;6.240;2023-06-22T02:44:18;19.50;99.90
31837;DHT22;18401;49.344;6.240;2023-06-22T02:46:45;19.50;99.90
31837;DHT22;18401;49.344;6.240;2023-06-22T02:49:11;19.40;99.90
31837;DHT22;18401;49.344;6.240;2023-06-22T02:51:39;19.40;99.90
31837;DHT22;18401;49.344;6.240;2023-06-22T02:54:08;19.40;99.90
31837;DHT22;18401;49.344;6.240;2023-06-22T02:56:33;19.30;99.90
31837;DHT22;18401;49.344;6.240;2023-06-22T02:58:59;19.30;99.90
31837;DHT22;18401;49.344;6.240;2023-06-22T03:01:28;19.30;99.90
31837;DHT22;18401;49.344;6.240;2023-06-22T03:03:56;19.20;99.90
31837;DHT22;18401;49.344;6.240;2023-06-22T03:06:22;19.30;99.90
31837;DHT22;18401;49.344;6.240;2023-06-22T03:08:51;19.20;99.90
31837;DHT22;18401;49.344;6.240;2023-06-22T03:11:17;19.20;99.90
31837;DHT22;18401;49.344;6.240;2023-06-22T03:13:43;19.20;99.90
31837;DHT22;18401;49.344;6.240;2023-06-22T03:16:09;19.20;99.90
31837;DHT22;18401;49.344;6.240;2023-06-22T03:18:34;19.20;99.90
31837;DHT22;18401;49.344;6.240;2023-06-22T03:21:00;19.20;99.90
31837;DHT22;18401;49.344;6.240;2023-06-22T03:23:27;19.20;99.90
31837;DHT22;18401;49.344;6.240;2023-06-22T03:25:53;19.20;99.90
31837;DHT22;18401;49.344;6.240;2023-06-22T03:28:21;19.20;99.90
31837;DHT22;18401;49.344;6.240;2023-06-22T03:30:48;19.20;99.90
31837;DHT22;18401;49.344;6.240;2023-06-22T03:33:13;19.20;99.90
31837;DHT22;18401;49.344;6.240;2023-06-22T03:35:39;19.20;99.90
31837;DHT22;18401;49.344;6.240;2023-06-22T03:38:05;19.20;99.90
31837;DHT22;18401;49.344;6.240;2023-06-22T03:40:30;19.10;99.90
31837;DHT22;18401;49.344;6.240;2023-06-22T03:42:56;19.10;99.90
31837;DHT22;18401;49.344;6.240;2023-06-22T03:45:22;19.10;99.90
31837;DHT22;18401;49.344;6.240;2023-06-22T03:47:47;19.10;99.90
31837;DHT22;18401;49.344;6.240;2023-06-22T03:50:13;19.10;99.90
31837;DHT22;18401;49.344;6.240;2023-06-22T03:52:40;19.10;99.90
31837;DHT22;18401;49.344;6.240;2023-06-22T03:55:06;19.10;99.90
31837;DHT22;18401;49.344;6.240;2023-06-22T03:57:32;19.10;99.90
31837;DHT22;18401;49.344;6.240;2023-06-22T03:59:58;19.10;99.90
31837;DHT22;18401;49.344;6.240;2023-06-22T04:02:24;19.10;99.90
31837;DHT22;18401;49.344;6.240;2023-06-22T04:04:51;19.10;99.90
31837;DHT22;18401;49.344;6.240;2023-06-22T04:07:17;19.10;99.90
31837;DHT22;18401;49.344;6.240;2023-06-22T04:09:43;19.10;99.90
31837;DHT22;18401;49.344;6.240;2023-06-22T04:12:09;19.10;99.90
31837;DHT22;18401;49.344;6.240;2023-06-22T04:14:35;19.20;99.90
31837;DHT22;18401;49.344;6.240;2023-06-22T04:17:01;19.20;99.90
31837;DHT22;18401;49.344;6.240;2023-06-22T04:19:27;19.20;99.90
31837;DHT22;18401;49.344;6.240;2023-06-22T04:21:53;19.20;99.90
31837;DHT22;18401;49.344;6.240;2023-06-22T04:24:18;19.20;99.90
31837;DHT22;18401;49.344;6.240;2023-06-22T04:26:44;19.30;99.90
31837;DHT22;18401;49.344;6.240;2023-06-22T04:29:12;19.20;99.90
31837;DHT22;18401;49.344;6.240;2023-06-22T04:31:38;19.30;99.90
31837;DHT22;18401;49.344;6.240;2023-06-22T04:34:05;19.30;99.90
31837;DHT22;18401;49.344;6.240;2023-06-22T04:36:41;19.30;99.90
31837;DHT22;18401;49.344;6.240;2023-06-22T04:39:07;19.30;99.90
31837;DHT22;18401;49.344;6.240;2023-06-22T04:41:38;19.30;99.90
31837;DHT22;18401;49.344;6.240;2023-06-22T04:44:19;19.40;99.90
31837;DHT22;18401;49.344;6.240;2023-06-22T04:46:53;19.40;99.90
31837;DHT22;18401;49.344;6.240;2023-06-22T04:49:20;19.40;99.90
31837;DHT22;18401;49.344;6.240;2023-06-22T04:51:46;19.50;99.90
31837;DHT22;18401;49.344;6.240;2023-06-22T04:54:12;19.60;99.90
31837;DHT22;18401;49.344;6.240;2023-06-22T04:56:38;19.60;99.90
31837;DHT22;18401;49.344;6.240;2023-06-22T04:59:06;19.80;99.90
31837;DHT22;18401;49.344;6.240;2023-06-22T05:01:32;19.70;99.90
31837;DHT22;18401;49.344;6.240;2023-06-22T05:03:58;19.80;99.90
31837;DHT22;18401;49.344;6.240;2023-06-22T05:06:26;19.80;99.90
31837;DHT22;18401;49.344;6.240;2023-06-22T05:08:54;19.90;99.90
31837;DHT22;18401;49.344;6.240;2023-06-22T05:11:29;20.00;99.90
31837;DHT22;18401;49.344;6.240;2023-06-22T05:13:55;20.00;99.90
31837;DHT22;18401;49.344;6.240;2023-06-22T05:16:21;20.00;99.90
31837;DHT22;18401;49.344;6.240;2023-06-22T05:18:54;20.10;99.90
31837;DHT22;18401;49.344;6.240;2023-06-22T05:21:25;20.10;99.90
31837;DHT22;18401;49.344;6.240;2023-06-22T05:23:52;20.10;99.90
31837;DHT22;18401;49.344;6.240;2023-06-22T05:26:21;20.10;99.90
31837;DHT22;18401;49.344;6.240;2023-06-22T05:28:47;20.10;99.90
31837;DHT22;18401;49.344;6.240;2023-06-22T05:31:14;20.20;99.90
31837;DHT22;18401;49.344;6.240;2023-06-22T05:33:41;20.20;99.90
31837;DHT22;18401;49.344;6.240;2023-06-22T05:36:07;20.20;99.90
31837;DHT22;18401;49.344;6.240;2023-06-22T05:38:33;20.20;99.90
31837;DHT22;18401;49.344;6.240;2023-06-22T05:40:58;20.20;99.90
31837;DHT22;18401;49.344;6.240;2023-06-22T05:43:24;20.10;99.90
31837;DHT22;18401;49.344;6.240;2023-06-22T05:45:50;20.20;99.90
31837;DHT22;18401;49.344;6.240;2023-06-22T05:48:15;20.20;99.90
31837;DHT22;18401;49.344;6.240;2023-06-22T05:50:42;20.30;99.90
31837;DHT22;18401;49.344;6.240;2023-06-22T05:53:07;20.30;99.90
31837;DHT22;18401;49.344;6.240;2023-06-22T05:55:33;20.30;99.90
31837;DHT22;18401;49.344;6.240;2023-06-22T05:57:59;20.30;99.90
31837;DHT22;18401;49.344;6.240;2023-06-22T06:00:24;20.40;99.90
31837;DHT22;18401;49.344;6.240;2023-06-22T06:02:50;20.40;99.90
31837;DHT22;18401;49.344;6.240;2023-06-22T06:05:16;20.50;99.90
31837;DHT22;18401;49.344;6.240;2023-06-22T06:07:42;20.60;99.90
31837;DHT22;18401;49.344;6.240;2023-06-22T06:10:09;20.70;99.90
31837;DHT22;18401;49.344;6.240;2023-06-22T06:12:35;20.70;99.90
31837;DHT22;18401;49.344;6.240;2023-06-22T06:15:01;20.90;99.90
31837;DHT22;18401;49.344;6.240;2023-06-22T06:17:27;21.20;99.90
31837;DHT22;18401;49.344;6.240;2023-06-22T06:19:53;21.30;99.90
31837;DHT22;18401;49.344;6.240;2023-06-22T06:22:18;21.30;99.90
31837;DHT22;18401;49.344;6.240;2023-06-22T06:24:46;21.30;99.90
31837;DHT22;18401;49.344;6.240;2023-06-22T06:27:13;21.30;99.90
31837;DHT22;18401;49.344;6.240;2023-06-22T06:29:39;21.60;99.90
31837;DHT22;18401;49.344;6.240;2023-06-22T06:32:05;21.70;99.90
31837;DHT22;18401;49.344;6.240;2023-06-22T06:34:30;21.70;99.90
31837;DHT22;18401;49.344;6.240;2023-06-22T06:36:56;21.70;99.90
31837;DHT22;18401;49.344;6.240;2023-06-22T06:39:22;21.70;99.90
31837;DHT22;18401;49.344;6.240;2023-06-22T06:41:48;21.70;99.90
31837;DHT22;18401;49.344;6.240;2023-06-22T06:44:13;21.60;99.90
31837;DHT22;18401;49.344;6.240;2023-06-22T06:46:39;21.80;99.90
31837;DHT22;18401;49.344;6.240;2023-06-22T06:49:05;22.00;99.90
31837;DHT22;18401;49.344;6.240;2023-06-22T06:51:31;22.20;99.90
31837;DHT22;18401;49.344;6.240;2023-06-22T06:53:56;22.50;99.90
31837;DHT22;18401;49.344;6.240;2023-06-22T06:56:22;22.60;99.90
31837;DHT22;18401;49.344;6.240;2023-06-22T06:58:50;22.70;99.90
31837;DHT22;18401;49.344;6.240;2023-06-22T07:01:15;22.80;99.90
31837;DHT22;18401;49.344;6.240;2023-06-22T07:03:41;23.10;99.90
31837;DHT22;18401;49.344;6.240;2023-06-22T07:06:07;23.10;99.90
31837;DHT22;18401;49.344;6.240;2023-06-22T07:08:33;23.10;99.90
31837;DHT22;18401;49.344;6.240;2023-06-22T07:11:00;23.10;99.90
31837;DHT22;18401;49.344;6.240;2023-06-22T07:13:26;23.30;99.90
31837;DHT22;18401;49.344;6.240;2023-06-22T07:15:52;23.60;99.90
31837;DHT22;18401;49.344;6.240;2023-06-22T07:18:17;23.90;99.90
31837;DHT22;18401;49.344;6.240;2023-06-22T07:20:43;24.00;99.90
31837;DHT22;18401;49.344;6.240;2023-06-22T07:23:09;23.80;99.90
31837;DHT22;18401;49.344;6.240;2023-06-22T07:25:34;23.80;99.90
31837;DHT22;18401;49.344;6.240;2023-06-22T07:28:03;24.10;99.90
31837;DHT22;18401;49.344;6.240;2023-06-22T07:30:30;24.00;99.90
31837;DHT22;18401;49.344;6.240;2023-06-22T07:32:57;24.10;99.90
31837;DHT22;18401;49.344;6.240;2023-06-22T07:35:23;24.40;99.90
31837;DHT22;18401;49.344;6.240;2023-06-22T07:37:49;24.60;99.90
31837;DHT22;18401;49.344;6.240;2023-06-22T07:40:15;24.50;99.90
31837;DHT22;18401;49.344;6.240;2023-06-22T07:42:41;24.40;99.90
31837;DHT22;18401;49.344;6.240;2023-06-22T07:45:07;24.20;99.90
31837;DHT22;18401;49.344;6.240;2023-06-22T07:47:34;24.10;99.90
31837;DHT22;18401;49.344;6.240;2023-06-22T07:50:01;24.00;99.90
31837;DHT22;18401;49.344;6.240;2023-06-22T07:52:28;23.90;99.90
31837;DHT22;18401;49.344;6.240;2023-06-22T07:54:54;23.80;99.90
31837;DHT22;18401;49.344;6.240;2023-06-22T07:57:20;23.70;99.90
31837;DHT22;18401;49.344;6.240;2023-06-22T07:59:46;23.70;99.90
31837;DHT22;18401;49.344;6.240;2023-06-22T08:02:12;23.80;99.90
31837;DHT22;18401;49.344;6.240;2023-06-22T08:04:38;23.70;99.90
31837;DHT22;18401;49.344;6.240;2023-06-22T08:07:04;23.70;99.90
31837;DHT22;18401;49.344;6.240;2023-06-22T08:09:31;23.70;99.90
31837;DHT22;18401;49.344;6.240;2023-06-22T08:11:57;23.70;99.90
31837;DHT22;18401;49.344;6.240;2023-06-22T08:14:27;23.80;99.90
31837;DHT22;18401;49.344;6.240;2023-06-22T08:16:53;23.80;99.90
31837;DHT22;18401;49.344;6.240;2023-06-22T08:19:18;23.80;99.90
31837;DHT22;18401;49.344;6.240;2023-06-22T08:21:44;23.70;99.90
31837;DHT22;18401;49.344;6.240;2023-06-22T08:24:10;23.50;99.90
31837;DHT22;18401;49.344;6.240;2023-06-22T08:26:35;23.30;99.90
31837;DHT22;18401;49.344;6.240;2023-06-22T08:29:05;23.20;99.90
31837;DHT22;18401;49.344;6.240;2023-06-22T08:31:31;22.80;99.90
31837;DHT22;18401;49.344;6.240;2023-06-22T08:34:00;22.00;99.90
31837;DHT22;18401;49.344;6.240;2023-06-22T08:36:26;21.80;99.90
31837;DHT22;18401;49.344;6.240;2023-06-22T08:38:54;21.50;99.90
31837;DHT22;18401;49.344;6.240;2023-06-22T08:41:23;21.50;99.90
31837;DHT22;18401;49.344;6.240;2023-06-22T08:43:49;21.60;99.90
31837;DHT22;18401;49.344;6.240;2023-06-22T08:46:15;21.70;99.90
31837;DHT22;18401;49.344;6.240;2023-06-22T08:48:45;21.70;99.90
31837;DHT22;18401;49.344;6.240;2023-06-22T08:51:11;21.80;99.90
31837;DHT22;18401;49.344;6.240;2023-06-22T08:53:36;21.90;99.90
31837;DHT22;18401;49.344;6.240;2023-06-22T08:56:02;22.40;99.90
31837;DHT22;18401;49.344;6.240;2023-06-22T08:58:28;22.80;99.90
31837;DHT22;18401;49.344;6.240;2023-06-22T09:00:53;22.70;99.90
31837;DHT22;18401;49.344;6.240;2023-06-22T09:03:19;22.80;99.90
31837;DHT22;18401;49.344;6.240;2023-06-22T09:05:46;23.00;99.90
31837;DHT22;18401;49.344;6.240;2023-06-22T09:08:11;23.10;99.90
31837;DHT22;18401;49.344;6.240;2023-06-22T09:10:37;23.00;99.90
31837;DHT22;18401;49.344;6.240;2023-06-22T09:13:03;22.90;99.90
31837;DHT22;18401;49.344;6.240;2023-06-22T09:15:28;22.80;99.90
31837;DHT22;18401;49.344;6.240;2023-06-22T09:17:54;22.70;99.90
31837;DHT22;18401;49.344;6.240;2023-06-22T09:20:20;22.70;99.90
31837;DHT22;18401;49.344;6.240;2023-06-22T09:22:45;22.60;99.90
31837;DHT22;18401;49.344;6.240;2023-06-22T09:25:11;22.50;99.90
31837;DHT22;18401;49.344;6.240;2023-06-22T09:27:38;22.50;99.90
31837;DHT22;18401;49.344;6.240;2023-06-22T09:30:04;22.60;99.90
31837;DHT22;18401;49.344;6.240;2023-06-22T09:32:29;22.80;99.90
31837;DHT22;18401;49.344;6.240;2023-06-22T09:34:55;23.00;99.90
31837;DHT22;18401;49.344;6.240;2023-06-22T09:37:21;23.30;99.90
31837;DHT22;18401;49.344;6.240;2023-06-22T09:39:46;23.90;99.90
31837;DHT22;18401;49.344;6.240;2023-06-22T09:42:12;24.30;99.90
31837;DHT22;18401;49.344;6.240;2023-06-22T09:44:38;24.60;99.90
31837;DHT22;18401;49.344;6.240;2023-06-22T09:47:04;24.70;99.90
31837;DHT22;18401;49.344;6.240;2023-06-22T09:49:30;24.90;99.90
31837;DHT22;18401;49.344;6.240;2023-06-22T09:51:57;24.90;99.90
31837;DHT22;18401;49.344;6.240;2023-06-22T09:54:23;24.90;99.90
31837;DHT22;18401;49.344;6.240;2023-06-22T09:56:48;24.90;99.90
31837;DHT22;18401;49.344;6.240;2023-06-22T09:59:14;24.90;99.90
31837;DHT22;18401;49.344;6.240;2023-06-22T10:01:40;25.30;99.90
31837;DHT22;18401;49.344;6.240;2023-06-22T10:04:05;25.60;99.90
31837;DHT22;18401;49.344;6.240;2023-06-22T10:06:31;25.40;99.90
31837;DHT22;18401;49.344;6.240;2023-06-22T10:08:57;25.50;99.90
31837;DHT22;18401;49.344;6.240;2023-06-22T10:11:22;25.50;99.90
31837;DHT22;18401;49.344;6.240;2023-06-22T10:13:54;25.50;99.90
31837;DHT22;18401;49.344;6.240;2023-06-22T10:16:20;25.50;99.90
31837;DHT22;18401;49.344;6.240;2023-06-22T10:18:46;25.40;99.90
31837;DHT22;18401;49.344;6.240;2023-06-22T10:21:11;25.40;99.90
31837;DHT22;18401;49.344;6.240;2023-06-22T10:23:37;25.60;99.90
31837;DHT22;18401;49.344;6.240;2023-06-22T10:26:03;25.60;99.90
31837;DHT22;18401;49.344;6.240;2023-06-22T10:28:28;26.00;99.90
31837;DHT22;18401;49.344;6.240;2023-06-22T10:30:54;26.20;99.90
31837;DHT22;18401;49.344;6.240;2023-06-22T10:33:20;26.20;99.90
31837;DHT22;18401;49.344;6.240;2023-06-22T10:35:46;26.40;99.90
31837;DHT22;18401;49.344;6.240;2023-06-22T10:38:11;26.10;99.90
31837;DHT22;18401;49.344;6.240;2023-06-22T10:40:37;26.00;99.90
31837;DHT22;18401;49.344;6.240;2023-06-22T10:43:04;25.90;99.90
31837;DHT22;18401;49.344;6.240;2023-06-22T10:45:30;26.00;99.90
31837;DHT22;18401;49.344;6.240;2023-06-22T10:47:56;26.40;99.90
31837;DHT22;18401;49.344;6.240;2023-06-22T10:50:21;26.60;99.90
31837;DHT22;18401;49.344;6.240;2023-06-22T10:52:49;26.40;99.90
31837;DHT22;18401;49.344;6.240;2023-06-22T10:55:15;26.40;99.90
31837;DHT22;18401;49.344;6.240;2023-06-22T10:57:40;27.40;99.90
31837;DHT22;18401;49.344;6.240;2023-06-22T11:00:08;28.70;99.90
31837;DHT22;18401;49.344;6.240;2023-06-22T11:02:34;29.70;99.90
31837;DHT22;18401;49.344;6.240;2023-06-22T11:05:00;29.90;99.90
31837;DHT22;18401;49.344;6.240;2023-06-22T11:07:26;29.90;99.90
31837;DHT22;18401;49.344;6.240;2023-06-22T11:09:54;30.20;99.90
31837;DHT22;18401;49.344;6.240;2023-06-22T11:12:19;30.80;99.90
31837;DHT22;18401;49.344;6.240;2023-06-22T11:14:45;31.10;99.90
31837;DHT22;18401;49.344;6.240;2023-06-22T11:17:11;31.30;99.90
31837;DHT22;18401;49.344;6.240;2023-06-22T11:19:36;31.10;99.90
31837;DHT22;18401;49.344;6.240;2023-06-22T11:22:02;30.70;99.90
31837;DHT22;18401;49.344;6.240;2023-06-22T11:24:28;30.60;99.90
31837;DHT22;18401;49.344;6.240;2023-06-22T11:26:54;30.40;99.90
31837;DHT22;18401;49.344;6.240;2023-06-22T11:29:19;30.40;99.90
31837;DHT22;18401;49.344;6.240;2023-06-22T11:31:45;30.20;99.90
31837;DHT22;18401;49.344;6.240;2023-06-22T11:34:10;29.90;99.90
31837;DHT22;18401;49.344;6.240;2023-06-22T11:36:36;29.10;99.90
31837;DHT22;18401;49.344;6.240;2023-06-22T11:39:03;28.90;99.90
31837;DHT22;18401;49.344;6.240;2023-06-22T11:41:30;29.00;99.90
31837;DHT22;18401;49.344;6.240;2023-06-22T11:43:56;29.30;99.90
31837;DHT22;18401;49.344;6.240;2023-06-22T11:46:21;30.00;99.90
31837;DHT22;18401;49.344;6.240;2023-06-22T11:48:47;29.90;99.90
31837;DHT22;18401;49.344;6.240;2023-06-22T11:51:13;29.70;99.90
31837;DHT22;18401;49.344;6.240;2023-06-22T11:53:38;29.70;99.90
31837;DHT22;18401;49.344;6.240;2023-06-22T11:56:04;29.10;99.90
31837;DHT22;18401;49.344;6.240;2023-06-22T11:58:30;28.80;99.90
31837;DHT22;18401;49.344;6.240;2023-06-22T12:00:55;29.10;99.90
31837;DHT22;18401;49.344;6.240;2023-06-22T12:03:21;28.90;99.90
31837;DHT22;18401;49.344;6.240;2023-06-22T12:05:47;28.60;99.90
31837;DHT22;18401;49.344;6.240;2023-06-22T12:08:13;28.70;99.90
31837;DHT22;18401;49.344;6.240;2023-06-22T12:10:39;28.90;99.90
31837;DHT22;18401;49.344;6.240;2023-06-22T12:13:05;28.70;99.90
31837;DHT22;18401;49.344;6.240;2023-06-22T12:15:30;28.90;99.90
31837;DHT22;18401;49.344;6.240;2023-06-22T12:17:56;28.90;99.90
31837;DHT22;18401;49.344;6.240;2023-06-22T12:20:22;28.50;99.90
31837;DHT22;18401;49.344;6.240;2023-06-22T12:22:47;27.70;99.90
31837;DHT22;18401;49.344;6.240;2023-06-22T12:25:15;27.50;99.90
31837;DHT22;18401;49.344;6.240;2023-06-22T12:27:41;27.10;99.90
31837;DHT22;18401;49.344;6.240;2023-06-22T12:30:08;26.90;99.90
31837;DHT22;18401;49.344;6.240;2023-06-22T12:32:34;26.70;99.90
31837;DHT22;18401;49.344;6.240;2023-06-22T12:35:00;26.30;99.90
31837;DHT22;18401;49.344;6.240;2023-06-22T12:37:26;26.00;99.90
31837;DHT22;18401;49.344;6.240;2023-06-22T12:39:52;25.60;99.90
31837;DHT22;18401;49.344;6.240;2023-06-22T12:42:18;24.70;99.90
31837;DHT22;18401;49.344;6.240;2023-06-22T12:44:44;24.00;99.90
31837;DHT22;18401;49.344;6.240;2023-06-22T12:47:09;23.10;99.90
31837;DHT22;18401;49.344;6.240;2023-06-22T12:49:36;22.50;99.90
31837;DHT22;18401;49.344;6.240;2023-06-22T12:52:02;22.10;99.90
31837;DHT22;18401;49.344;6.240;2023-06-22T12:54:27;21.90;99.90
31837;DHT22;18401;49.344;6.240;2023-06-22T12:56:55;21.80;99.90
31837;DHT22;18401;49.344;6.240;2023-06-22T12:59:21;21.60;99.90
31837;DHT22;18401;49.344;6.240;2023-06-22T13:01:46;21.60;99.90
31837;DHT22;18401;49.344;6.240;2023-06-22T13:04:12;21.60;99.90
31837;DHT22;18401;49.344;6.240;2023-06-22T13:06:41;21.60;99.90
31837;DHT22;18401;49.344;6.240;2023-06-22T13:09:09;21.70;99.90
31837;DHT22;18401;49.344;6.240;2023-06-22T13:11:35;21.80;99.90
31837;DHT22;18401;49.344;6.240;2023-06-22T13:14:01;21.90;99.90
31837;DHT22;18401;49.344;6.240;2023-06-22T13:16:26;22.10;99.90
31837;DHT22;18401;49.344;6.240;2023-06-22T13:18:52;22.10;99.90
31837;DHT22;18401;49.344;6.240;2023-06-22T13:21:17;22.20;99.90
31837;DHT22;18401;49.344;6.240;2023-06-22T13:23:43;22.40;99.90
31837;DHT22;18401;49.344;6.240;2023-06-22T13:26:09;22.60;99.90
31837;DHT22;18401;49.344;6.240;2023-06-22T13:28:34;22.70;99.90
31837;DHT22;18401;49.344;6.240;2023-06-22T13:31:00;22.80;99.90
31837;DHT22;18401;49.344;6.240;2023-06-22T13:33:26;22.90;99.90
31837;DHT22;18401;49.344;6.240;2023-06-22T13:35:51;23.00;99.90
31837;DHT22;18401;49.344;6.240;2023-06-22T13:38:17;23.10;99.90
31837;DHT22;18401;49.344;6.240;2023-06-22T13:40:43;23.30;99.90
31837;DHT22;18401;49.344;6.240;2023-06-22T13:43:09;23.60;99.90
31837;DHT22;18401;49.344;6.240;2023-06-22T13:45:34;23.80;99.90
31837;DHT22;18401;49.344;6.240;2023-06-22T13:48:00;24.40;99.90
31837;DHT22;18401;49.344;6.240;2023-06-22T13:50:26;24.80;99.90
31837;DHT22;18401;49.344;6.240;2023-06-22T13:52:51;25.20;99.90
31837;DHT22;18401;49.344;6.240;2023-06-22T13:55:17;25.70;99.90
31837;DHT22;18401;49.344;6.240;2023-06-22T13:57:45;25.60;99.90
31837;DHT22;18401;49.344;6.240;2023-06-22T14:00:11;25.60;99.90
31837;DHT22;18401;49.344;6.240;2023-06-22T14:02:38;25.70;99.90
31837;DHT22;18401;49.344;6.240;2023-06-22T14:05:05;25.70;99.90
31837;DHT22;18401;49.344;6.240;2023-06-22T14:07:31;25.90;99.90
31837;DHT22;18401;49.344;6.240;2023-06-22T14:09:57;26.20;99.90
31837;DHT22;18401;49.344;6.240;2023-06-22T14:12:23;26.30;99.90
31837;DHT22;18401;49.344;6.240;2023-06-22T14:14:49;25.70;99.90
31837;DHT22;18401;49.344;6.240;2023-06-22T14:17:14;25.50;99.90
31837;DHT22;18401;49.344;6.240;2023-06-22T14:19:40;25.30;99.90
31837;DHT22;18401;49.344;6.240;2023-06-22T14:22:06;25.30;99.90
31837;DHT22;18401;49.344;6.240;2023-06-22T14:24:32;25.40;99.90
31837;DHT22;18401;49.344;6.240;2023-06-22T14:26:57;25.50;99.90
31837;DHT22;18401;49.344;6.240;2023-06-22T14:29:23;25.30;99.90
31837;DHT22;18401;49.344;6.240;2023-06-22T14:31:49;24.80;99.90
31837;DHT22;18401;49.344;6.240;2023-06-22T14:34:15;24.60;99.90
31837;DHT22;18401;49.344;6.240;2023-06-22T14:36:41;24.40;99.90
31837;DHT22;18401;49.344;6.240;2023-06-22T14:39:09;24.30;99.90
31837;DHT22;18401;49.344;6.240;2023-06-22T14:41:34;25.20;99.90
31837;DHT22;18401;49.344;6.240;2023-06-22T14:44:00;26.50;99.90
31837;DHT22;18401;49.344;6.240;2023-06-22T14:46:26;26.60;99.90
31837;DHT22;18401;49.344;6.240;2023-06-22T14:48:52;27.40;99.90
31837;DHT22;18401;49.344;6.240;2023-06-22T14:51:17;27.70;99.90
31837;DHT22;18401;49.344;6.240;2023-06-22T14:53:46;26.90;99.90
31837;DHT22;18401;49.344;6.240;2023-06-22T14:56:12;26.60;99.90
31837;DHT22;18401;49.344;6.240;2023-06-22T14:58:41;26.80;99.90
31837;DHT22;18401;49.344;6.240;2023-06-22T15:01:11;26.70;99.90
31837;DHT22;18401;49.344;6.240;2023-06-22T15:03:36;26.60;99.90
31837;DHT22;18401;49.344;6.240;2023-06-22T15:06:03;25.50;99.90
31837;DHT22;18401;49.344;6.240;2023-06-22T15:08:29;25.10;99.90
31837;DHT22;18401;49.344;6.240;2023-06-22T15:10:57;24.90;99.90
31837;DHT22;18401;49.344;6.240;2023-06-22T15:13:23;25.40;99.90
31837;DHT22;18401;49.344;6.240;2023-06-22T15:15:50;24.90;99.90
31837;DHT22;18401;49.344;6.240;2023-06-22T15:18:16;24.40;99.90
31837;DHT22;18401;49.344;6.240;2023-06-22T15:20:42;24.10;99.90
31837;DHT22;18401;49.344;6.240;2023-06-22T15:23:13;24.10;99.90
31837;DHT22;18401;49.344;6.240;2023-06-22T15:25:39;25.00;99.90
31837;DHT22;18401;49.344;6.240;2023-06-22T15:28:06;25.80;99.90
31837;DHT22;18401;49.344;6.240;2023-06-22T15:30:31;26.10;99.90
31837;DHT22;18401;49.344;6.240;2023-06-22T15:32:57;25.50;99.90